createdAt,value
2022-10-12T00:00:38.854Z,101264.69
2022-10-12T00:02:42.555Z,101262.97
2022-10-12T00:04:46.072Z,101266.41
2022-10-12T00:06:51.233Z,101255.69
2022-10-12T00:08:56.470Z,101256.44
2022-10-12T00:11:00.090Z,101244.13
2022-10-12T00:13:03.727Z,101243.25
2022-10-12T00:15:08.044Z,101252.00
2022-10-12T00:17:11.520Z,101235.03
2022-10-12T00:19:15.800Z,101234.16
2022-10-12T00:21:20.297Z,101219.16
2022-10-12T00:23:25.336Z,101212.91
2022-10-12T00:25:28.990Z,101207.59
2022-10-12T00:27:32.707Z,101204.00
2022-10-12T00:29:36.543Z,101212.81
2022-10-12T00:31:40.003Z,101202.09
2022-10-12T00:33:44.403Z,101207.22
2022-10-12T00:35:48.245Z,101206.19
2022-10-12T00:37:56.193Z,101198.13
2022-10-12T00:40:03.060Z,101193.66
2022-10-12T00:42:07.569Z,101207.69
2022-10-12T00:44:36.374Z,101208.44
2022-10-12T00:46:46.249Z,101198.69
2022-10-12T00:48:54.630Z,101190.72
2022-10-12T00:51:02.376Z,101181.78
2022-10-12T00:53:11.022Z,101185.31
2022-10-12T00:55:19.629Z,101174.56
2022-10-12T00:57:25.335Z,101173.81
2022-10-12T00:59:33.828Z,101171.06
2022-10-12T01:01:40.335Z,101166.59
2022-10-12T01:03:45.094Z,101163.00
2022-10-12T01:05:51.065Z,101157.59
2022-10-12T01:07:56.110Z,101147.91
2022-10-12T01:10:01.053Z,101148.03
2022-10-12T01:12:09.379Z,101135.69
2022-10-12T01:14:13.623Z,101134.75
2022-10-12T01:16:23.960Z,101145.38
2022-10-12T01:18:38.529Z,101148.03
2022-10-12T01:21:08.528Z,101123.16
2022-10-12T01:23:31.183Z,101122.97
2022-10-12T01:25:49.912Z,101124.69
2022-10-12T01:28:03.216Z,101103.31
2022-10-12T01:30:16.658Z,101099.63
2022-10-12T01:32:24.142Z,101097.69
2022-10-12T01:34:34.962Z,101089.63
2022-10-12T01:36:44.466Z,101070.91
2022-10-12T01:38:55.427Z,101075.28
2022-10-12T01:41:05.482Z,101076.13
2022-10-12T01:43:10.007Z,101076.03
2022-10-12T01:45:18.599Z,101068.06
2022-10-12T01:47:22.565Z,101073.28
2022-10-12T01:49:29.199Z,101063.50
2022-10-12T01:51:42.926Z,101058.06
2022-10-12T01:53:51.725Z,101050.97
2022-10-12T01:56:03.147Z,101050.97
2022-10-12T01:58:23.891Z,101050.97
2022-10-12T02:00:29.151Z,101049.06
2022-10-12T02:02:46.530Z,101030.47
2022-10-12T02:04:54.118Z,101032.28
2022-10-12T02:07:05.282Z,101040.13
2022-10-12T02:09:16.627Z,101022.41
2022-10-12T02:11:24.603Z,101025.81
2022-10-12T02:13:33.507Z,101026.56
2022-10-12T02:15:41.782Z,101038.06
2022-10-12T02:17:49.671Z,101047.72
2022-10-12T02:19:58.188Z,101048.47
2022-10-12T02:22:04.561Z,101030.59
2022-10-12T02:24:12.110Z,101029.53
2022-10-12T02:26:18.047Z,101028.47
2022-10-12T02:28:26.566Z,101032.00
2022-10-12T02:30:47.827Z,101020.28
2022-10-12T02:32:58.481Z,101017.63
2022-10-12T02:35:10.282Z,101022.09
2022-10-12T02:37:28.885Z,101014.97
2022-10-12T02:39:39.460Z,101022.00
2022-10-12T02:41:47.745Z,101020.22
2022-10-12T02:43:58.021Z,101019.34
2022-10-12T02:46:05.537Z,101014.03
2022-10-12T02:48:13.735Z,101024.66
2022-10-12T02:50:20.125Z,101021.06
2022-10-12T02:52:25.953Z,101018.41
2022-10-12T02:54:30.113Z,101017.44
2022-10-12T02:56:33.890Z,101021.06
2022-10-12T02:58:39.226Z,101005.84
2022-10-12T03:00:43.745Z,101012.97
2022-10-12T03:02:50.645Z,100991.72
2022-10-12T03:04:58.235Z,100990.88
2022-10-12T03:07:02.090Z,100981.19
2022-10-12T03:09:05.491Z,101005.09
2022-10-12T03:11:10.647Z,100986.63
2022-10-12T03:13:13.936Z,100990.22
2022-10-12T03:15:17.431Z,100987.66
2022-10-12T03:17:20.648Z,100986.06
2022-10-12T03:19:25.494Z,100986.19
2022-10-12T03:21:28.718Z,100988.84
2022-10-12T03:23:32.494Z,100981.81
2022-10-12T03:25:35.701Z,100986.41
2022-10-12T03:27:39.269Z,100988.94
2022-10-12T03:29:43.061Z,100977.69
2022-10-12T03:31:46.338Z,100974.06
2022-10-12T03:33:50.067Z,100981.28
2022-10-12T03:35:54.927Z,100977.69
2022-10-12T03:37:58.263Z,100983.94
2022-10-12T03:40:01.520Z,100971.41
2022-10-12T03:42:05.177Z,100977.69
2022-10-12T03:44:08.521Z,100972.38
2022-10-12T03:46:12.442Z,100971.31
2022-10-12T03:48:15.718Z,100970.47
2022-10-12T03:50:19.338Z,100961.63
2022-10-12T03:52:24.041Z,100965.16
2022-10-12T03:54:27.375Z,100966.00
2022-10-12T03:56:30.639Z,100970.47
2022-10-12T03:58:34.546Z,100975.78
2022-10-12T04:00:37.908Z,100968.88
2022-10-12T04:02:41.515Z,100973.41
2022-10-12T04:04:45.036Z,100972.81
2022-10-12T04:06:48.352Z,100968.50
2022-10-12T04:08:53.114Z,100959.69
2022-10-12T04:10:56.443Z,100956.28
2022-10-12T04:12:59.802Z,100950.22
2022-10-12T04:15:03.137Z,100953.84
2022-10-12T04:17:06.481Z,100956.50
2022-10-12T04:19:13.356Z,100946.84
2022-10-12T04:21:18.252Z,100943.31
2022-10-12T04:23:21.634Z,100950.44
2022-10-12T04:25:30.046Z,100941.75
2022-10-12T04:27:33.802Z,100938.97
2022-10-12T04:29:37.268Z,100940.75
2022-10-12T04:31:40.679Z,100947.06
2022-10-12T04:33:44.269Z,100944.41
2022-10-12T04:35:47.486Z,100948.72
2022-10-12T04:37:50.960Z,100952.25
2022-10-12T04:39:54.453Z,100960.22
2022-10-12T04:41:59.287Z,100958.41
2022-10-12T04:44:02.686Z,100961.06
2022-10-12T04:46:06.312Z,100969.03
2022-10-12T04:48:09.721Z,100971.69
2022-10-12T04:50:13.670Z,100969.97
2022-10-12T04:52:17.295Z,100972.53
2022-10-12T04:54:21.493Z,100970.84
2022-10-12T04:56:25.458Z,100973.63
2022-10-12T04:58:30.529Z,100978.06
2022-10-12T05:00:33.907Z,100967.44
2022-10-12T05:02:37.233Z,100977.22
2022-10-12T05:04:40.564Z,100979.09
2022-10-12T05:06:44.063Z,100986.13
2022-10-12T05:08:47.527Z,100989.63
2022-10-12T05:10:51.007Z,101005.50
2022-10-12T05:12:54.258Z,101007.16
2022-10-12T05:14:59.002Z,101015.91
2022-10-12T05:17:02.233Z,101006.00
2022-10-12T05:19:05.506Z,101010.16
2022-10-12T05:21:08.981Z,100997.63
2022-10-12T05:23:13.156Z,101004.69
2022-10-12T05:25:16.990Z,100993.00
2022-10-12T05:27:21.151Z,100984.91
2022-10-12T05:29:24.706Z,100975.97
2022-10-12T05:31:29.522Z,100975.97
2022-10-12T05:33:32.919Z,100980.56
2022-10-12T05:35:36.266Z,100977.91
2022-10-12T05:37:39.915Z,100967.25
2022-10-12T05:39:43.925Z,100972.69
2022-10-12T05:41:47.367Z,100965.56
2022-10-12T05:43:50.645Z,100967.50
2022-10-12T05:45:54.420Z,100959.50
2022-10-12T05:47:59.651Z,100971.06
2022-10-12T05:50:03.110Z,100966.63
2022-10-12T05:52:06.859Z,100966.63
2022-10-12T05:54:10.600Z,100970.88
2022-10-12T05:56:14.900Z,100961.84
2022-10-12T05:58:18.589Z,100973.22
2022-10-12T06:00:22.181Z,100974.78
2022-10-12T06:02:25.652Z,100982.56
2022-10-12T06:04:30.430Z,100975.34
2022-10-12T06:06:34.596Z,100972.44
2022-10-12T06:08:38.088Z,100977.69
2022-10-12T06:10:46.644Z,100964.28
2022-10-12T06:12:50.214Z,100963.31
2022-10-12T06:14:53.813Z,100972.25
2022-10-12T06:16:57.603Z,100969.59
2022-10-12T06:19:01.418Z,100966.19
2022-10-12T06:21:32.062Z,100960.16
2022-10-12T06:23:29.503Z,100966.41
2022-10-12T06:25:33.224Z,100969.19
2022-10-12T06:27:36.631Z,100966.63
2022-10-12T06:29:40.213Z,100966.81
2022-10-12T06:31:47.681Z,100972.13
2022-10-12T06:33:54.150Z,100975.78
2022-10-12T06:35:57.888Z,100968.75
2022-10-12T06:38:03.080Z,100967.03
2022-10-12T06:40:07.726Z,100968.00
2022-10-12T06:42:12.266Z,100972.47
2022-10-12T06:44:26.198Z,100969.91
2022-10-12T06:46:30.109Z,100978.00
2022-10-12T06:48:33.874Z,100972.69
2022-10-12T06:50:39.102Z,100985.09
2022-10-12T06:52:44.043Z,100978.19
2022-10-12T06:54:54.585Z,100979.97
2022-10-12T06:57:00.686Z,100980.84
2022-10-12T06:59:04.765Z,100986.16
2022-10-12T07:01:10.918Z,100979.13
2022-10-12T07:03:15.080Z,100974.66
2022-10-12T07:05:19.163Z,100979.13
2022-10-12T07:07:22.738Z,100971.94
2022-10-12T07:09:26.369Z,100991.19
2022-10-12T07:11:31.268Z,100999.81
2022-10-12T07:13:35.493Z,101005.63
2022-10-12T07:15:39.177Z,101003.63
2022-10-12T07:17:42.980Z,101004.16
2022-10-12T07:19:46.624Z,101007.44
2022-10-12T07:21:50.444Z,101003.59
2022-10-12T07:23:54.386Z,101007.66
2022-10-12T07:25:58.133Z,101007.34
2022-10-12T07:28:05.535Z,101011.38
2022-10-12T07:30:11.848Z,101022.53
2022-10-12T07:32:15.545Z,101025.72
2022-10-12T07:34:19.400Z,101033.38
2022-10-12T07:36:24.579Z,101035.69
2022-10-12T07:38:28.328Z,101044.19
2022-10-12T07:40:33.252Z,101052.72
2022-10-12T07:42:48.874Z,101058.56
2022-10-12T07:45:02.660Z,101058.88
2022-10-12T07:47:06.652Z,101063.13
2022-10-12T07:49:12.956Z,101054.09
2022-10-12T07:51:17.536Z,101055.75
2022-10-12T07:53:21.359Z,101054.09
2022-10-12T07:55:25.125Z,101062.06
2022-10-12T07:57:29.085Z,101054.09
2022-10-12T07:59:32.650Z,101059.41
2022-10-12T08:01:38.097Z,101046.81
2022-10-12T08:03:41.988Z,101046.59
2022-10-12T08:05:45.773Z,101049.78
2022-10-12T08:07:50.016Z,101054.69
2022-10-12T08:09:53.639Z,101062.84
2022-10-12T08:11:57.785Z,101059.50
2022-10-12T08:14:04.763Z,101060.75
2022-10-12T08:16:12.261Z,101059.38
2022-10-12T08:18:17.350Z,101065.09
2022-10-12T08:20:21.075Z,101069.00
2022-10-12T08:22:24.856Z,101064.06
2022-10-12T08:24:28.809Z,101068.84
2022-10-12T08:26:33.391Z,101077.34
2022-10-12T08:28:37.553Z,101085.34
2022-10-12T08:30:41.383Z,101089.47
2022-10-12T08:32:44.956Z,101082.44
2022-10-12T08:34:50.289Z,101079.75
2022-10-12T08:36:53.939Z,101094.16
2022-10-12T08:38:57.496Z,101080.97
2022-10-12T08:41:15.825Z,101080.22
2022-10-12T08:43:31.813Z,101065.31
2022-10-12T08:45:44.278Z,101060.09
2022-10-12T08:47:52.746Z,101079.72
2022-10-12T08:49:57.837Z,101078.03
2022-10-12T08:52:06.721Z,101068.31
2022-10-12T08:54:15.194Z,101066.72
2022-10-12T08:56:19.542Z,101073.00
2022-10-12T08:58:27.580Z,101068.69
2022-10-12T09:00:34.995Z,101074.97
2022-10-12T09:02:55.169Z,101073.38
2022-10-12T09:05:03.110Z,101070.81
2022-10-12T09:07:12.257Z,101073.59
2022-10-12T09:09:43.122Z,101078.28
2022-10-12T09:11:59.963Z,101081.91
2022-10-12T09:14:08.897Z,101091.72
2022-10-12T09:16:22.992Z,101079.59
2022-10-12T09:18:40.415Z,101084.09
2022-10-12T09:20:49.796Z,101091.31
2022-10-12T09:22:58.422Z,101089.50
2022-10-12T09:25:03.689Z,101088.53
2022-10-12T09:27:16.010Z,101088.53
2022-10-12T09:29:25.934Z,101092.91
2022-10-12T09:31:43.753Z,101093.63
2022-10-12T09:33:53.151Z,101095.97
2022-10-12T09:35:59.543Z,101095.63
2022-10-12T09:38:03.774Z,101095.44
2022-10-12T09:40:08.913Z,101102.31
2022-10-12T09:42:12.792Z,101101.47
2022-10-12T09:44:28.453Z,101109.34
2022-10-12T09:46:40.599Z,101096.66
2022-10-12T09:48:59.076Z,101101.03
2022-10-12T09:51:05.727Z,101102.00
2022-10-12T09:53:22.378Z,101095.78
2022-10-12T09:55:28.596Z,101102.94
2022-10-12T09:57:35.270Z,101087.09
2022-10-12T09:59:45.274Z,101084.31
2022-10-12T10:01:59.864Z,101086.53
2022-10-12T10:04:17.942Z,101084.84
2022-10-12T10:06:27.004Z,101092.41
2022-10-12T10:08:30.719Z,101085.88
2022-10-12T10:10:35.674Z,101079.34
2022-10-12T10:12:45.325Z,101085.91
2022-10-12T10:14:49.465Z,101088.84
2022-10-12T10:16:56.017Z,101090.81
2022-10-12T10:19:02.413Z,101087.66
2022-10-12T10:21:09.188Z,101092.41
2022-10-12T10:23:27.327Z,101091.22
2022-10-12T10:25:31.790Z,101098.97
2022-10-12T10:27:37.888Z,101097.25
2022-10-12T10:29:43.966Z,101102.50
2022-10-12T10:31:48.403Z,101100.53
2022-10-12T10:34:12.715Z,101109.88
2022-10-12T10:36:21.474Z,101102.63
2022-10-12T10:38:27.457Z,101117.78
2022-10-12T10:40:33.261Z,101115.09
2022-10-12T10:42:37.525Z,101115.09
2022-10-12T10:46:47.998Z,101105.56
2022-10-12T10:48:56.818Z,101100.72
2022-10-12T10:51:02.667Z,101101.22
2022-10-12T10:53:15.234Z,101106.22
2022-10-12T10:55:28.640Z,101098.94
2022-10-12T10:57:34.994Z,101091.41
2022-10-12T10:59:43.828Z,101092.84
2022-10-12T11:01:55.903Z,101088.44
2022-10-12T11:04:03.165Z,101089.88
2022-10-12T11:06:18.111Z,101095.00
2022-10-12T11:08:26.442Z,101088.56
2022-10-12T11:10:35.760Z,101093.91
2022-10-12T11:12:46.254Z,101098.38
2022-10-12T11:14:53.559Z,101102.25
2022-10-12T11:17:00.635Z,101104.00
2022-10-12T11:19:14.576Z,101109.34
2022-10-12T11:21:22.700Z,101104.13
2022-10-12T11:23:36.619Z,101111.28
2022-10-12T11:25:50.566Z,101117.34
2022-10-12T11:27:56.617Z,101119.06
2022-10-12T11:30:09.290Z,101116.22
2022-10-12T11:32:23.406Z,101117.66
2022-10-12T11:34:29.190Z,101123.34
2022-10-12T11:36:36.146Z,101116.56
2022-10-12T11:38:44.753Z,101116.56
2022-10-12T11:41:31.454Z,101107.72
2022-10-12T11:43:23.591Z,101102.25
2022-10-12T11:45:39.359Z,101114.38
2022-10-12T11:47:47.553Z,101119.22
2022-10-12T11:49:58.369Z,101115.34
2022-10-12T11:52:06.891Z,101111.47
2022-10-12T11:54:22.135Z,101119.31
2022-10-12T11:56:31.023Z,101123.16
2022-10-12T11:58:59.909Z,101125.81
2022-10-12T12:01:21.238Z,101126.53
2022-10-12T12:03:32.122Z,101123.84
2022-10-12T12:05:36.008Z,101116.63
2022-10-12T12:07:42.906Z,101112.13
2022-10-12T12:09:50.572Z,101104.97
2022-10-12T12:12:19.875Z,101110.53
2022-10-12T12:14:57.097Z,101115.00
2022-10-12T12:17:16.845Z,101113.06
2022-10-12T12:19:39.409Z,101115.53
2022-10-12T12:22:29.116Z,101117.59
2022-10-12T12:24:32.943Z,101125.25
2022-10-12T12:26:36.902Z,101108.03
2022-10-12T12:28:44.480Z,101116.13
2022-10-12T12:30:59.584Z,101112.63
2022-10-12T12:33:06.335Z,101115.53
2022-10-12T12:35:24.694Z,101113.47
2022-10-12T12:37:34.140Z,101134.03
2022-10-12T12:39:41.818Z,101131.72
2022-10-12T12:41:57.721Z,101124.16
2022-10-12T12:44:06.954Z,101118.88
2022-10-12T12:46:13.476Z,101117.91
2022-10-12T12:49:01.488Z,101115.78
2022-10-12T12:51:09.761Z,101112.53
2022-10-12T12:53:21.544Z,101104.53
2022-10-12T12:55:45.540Z,101104.66
2022-10-12T12:58:10.861Z,101106.00
2022-10-12T13:00:20.977Z,101107.34
2022-10-12T13:02:52.340Z,101104.00
2022-10-12T13:05:28.401Z,101100.72
2022-10-12T13:08:04.058Z,101098.69
2022-10-12T13:10:33.260Z,101100.28
2022-10-12T13:13:01.774Z,101105.25
2022-10-12T13:15:30.199Z,101109.63
2022-10-12T13:17:59.642Z,101108.53
2022-10-12T13:20:13.192Z,101092.28
2022-10-12T13:22:28.488Z,101100.28
2022-10-12T13:24:39.205Z,101104.91
2022-10-12T13:26:46.815Z,101106.72
2022-10-12T13:28:52.442Z,101102.97
2022-10-12T13:31:02.289Z,101112.91
2022-10-12T13:33:17.612Z,101102.25
2022-10-12T13:35:32.886Z,101107.78
2022-10-12T13:37:37.371Z,101108.78
2022-10-12T13:39:43.535Z,101114.19
2022-10-12T13:41:49.352Z,101104.97
2022-10-12T13:43:57.316Z,101097.47
2022-10-12T13:46:03.782Z,101099.50
2022-10-12T13:48:08.470Z,101094.41
2022-10-12T13:50:20.379Z,101095.63
2022-10-12T13:52:32.134Z,101094.03
2022-10-12T13:54:40.847Z,101094.88
2022-10-12T13:56:46.909Z,101100.19
2022-10-12T13:58:56.760Z,101103.63
2022-10-12T14:01:03.864Z,101105.53
2022-10-12T14:03:08.870Z,101109.91
2022-10-12T14:05:19.437Z,101110.63
2022-10-12T14:07:27.958Z,101106.03
2022-10-12T14:09:41.712Z,101114.03
2022-10-12T14:11:47.343Z,101116.81
2022-10-12T14:13:52.770Z,101111.94
2022-10-12T14:15:58.029Z,101116.88
2022-10-12T14:18:04.228Z,101108.28
2022-10-12T14:20:20.330Z,101105.81
2022-10-12T14:22:28.213Z,101103.50
2022-10-12T14:24:32.747Z,101108.84
2022-10-12T14:26:41.621Z,101109.06
2022-10-12T14:28:46.174Z,101108.31
2022-10-12T14:30:53.439Z,101094.41
2022-10-12T14:33:10.625Z,101102.41
2022-10-12T14:35:23.506Z,101098.84
2022-10-12T14:37:32.048Z,101104.19
2022-10-12T14:39:36.788Z,101104.19
2022-10-12T14:41:52.658Z,101103.59
2022-10-12T14:44:10.657Z,101103.19
2022-10-12T14:46:16.152Z,101104.50
2022-10-12T14:48:23.739Z,101102.91
2022-10-12T14:50:31.236Z,101095.22
2022-10-12T14:52:41.811Z,101096.31
2022-10-12T14:54:46.736Z,101096.41
2022-10-12T14:56:50.950Z,101098.97
2022-10-12T14:58:56.012Z,101099.94
2022-10-12T15:01:00.390Z,101099.19
2022-10-12T15:03:05.525Z,101097.50
2022-10-12T15:05:12.273Z,101098.47
2022-10-12T15:07:23.270Z,101093.16
2022-10-12T15:09:27.790Z,101094.19
2022-10-12T15:11:33.117Z,101095.13
2022-10-12T15:13:37.934Z,101096.84
2022-10-12T15:15:44.900Z,101097.69
2022-10-12T15:17:49.134Z,101096.84
2022-10-12T15:19:54.802Z,101102.09
2022-10-12T15:21:59.614Z,101099.44
2022-10-12T15:24:15.224Z,101096.66
2022-10-12T15:26:20.386Z,101093.88
2022-10-12T15:28:25.511Z,101102.63
2022-10-12T15:30:30.113Z,101098.00
2022-10-12T15:32:34.784Z,101100.66
2022-10-12T15:34:39.878Z,101107.69
2022-10-12T15:36:44.268Z,101103.34
2022-10-12T15:38:48.662Z,101101.63
2022-10-12T15:40:56.571Z,101104.28
2022-10-12T15:43:01.496Z,101121.13
2022-10-12T15:45:17.795Z,101110.47
2022-10-12T15:47:21.898Z,101110.59
2022-10-12T15:49:26.345Z,101114.34
2022-10-12T15:51:30.574Z,101121.44
2022-10-12T15:53:35.163Z,101129.56
2022-10-12T15:55:40.211Z,101128.81
2022-10-12T15:57:47.355Z,101132.41
2022-10-12T15:59:52.807Z,101140.53
2022-10-12T16:01:57.390Z,101133.47
2022-10-12T16:04:01.771Z,101139.69
2022-10-12T16:06:08.951Z,101142.22
2022-10-12T16:08:13.635Z,101136.91
2022-10-12T16:10:20.351Z,101138.81
2022-10-12T16:12:24.545Z,101144.13
2022-10-12T16:14:31.082Z,101146.69
2022-10-12T16:16:35.571Z,101147.75
2022-10-12T16:18:40.700Z,101148.94
2022-10-12T16:20:47.581Z,101149.28
2022-10-12T16:22:56.274Z,101149.38
2022-10-12T16:25:00.814Z,101154.81
2022-10-12T16:27:05.235Z,101163.75
2022-10-12T16:29:09.681Z,101168.34
2022-10-12T16:31:18.004Z,101167.59
2022-10-12T16:33:22.374Z,101162.41
2022-10-12T16:35:26.701Z,101171.56
2022-10-12T16:37:31.447Z,101174.53
2022-10-12T16:39:36.040Z,101174.84
2022-10-12T16:41:40.107Z,101175.91
2022-10-12T16:43:45.330Z,101169.97
2022-10-12T16:45:57.686Z,101173.59
2022-10-12T16:48:04.151Z,101173.69
2022-10-12T16:50:09.338Z,101173.81
2022-10-12T16:52:13.999Z,101181.03
2022-10-12T16:54:18.909Z,101185.59
2022-10-12T16:56:23.594Z,101196.34
2022-10-12T16:58:27.788Z,101199.13
2022-10-12T17:00:32.072Z,101199.34
2022-10-12T17:02:36.162Z,101196.78
2022-10-12T17:04:42.178Z,101208.50
2022-10-12T17:06:46.855Z,101201.69
2022-10-12T17:08:50.778Z,101200.19
2022-10-12T17:10:55.796Z,101207.41
2022-10-12T17:13:00.651Z,101207.72
2022-10-12T17:15:05.859Z,101199.84
2022-10-12T17:17:10.517Z,101213.38
2022-10-12T17:19:15.599Z,101206.34
2022-10-12T17:21:20.888Z,101204.84
2022-10-12T17:23:24.899Z,101211.94
2022-10-12T17:25:28.668Z,101199.75
2022-10-12T17:27:32.561Z,101201.53
2022-10-12T17:29:37.214Z,101210.56
2022-10-12T17:31:41.398Z,101203.56
2022-10-12T17:33:45.067Z,101204.63
2022-10-12T17:35:50.834Z,101211.81
2022-10-12T17:37:57.180Z,101205.88
2022-10-12T17:40:01.114Z,101220.22
2022-10-12T17:42:06.398Z,101216.81
2022-10-12T17:44:11.593Z,101216.91
2022-10-12T17:46:20.177Z,101214.47
2022-10-12T17:48:26.675Z,101212.84
2022-10-12T17:50:30.544Z,101220.94
2022-10-12T17:52:40.063Z,101218.38
2022-10-12T17:54:48.688Z,101219.44
2022-10-12T17:56:52.582Z,101217.72
2022-10-12T17:58:57.273Z,101218.66
2022-10-12T18:01:06.324Z,101222.38
2022-10-12T18:03:11.762Z,101219.81
2022-10-12T18:05:15.753Z,101227.78
2022-10-12T18:07:20.227Z,101228.75
2022-10-12T18:09:24.163Z,101224.41
2022-10-12T18:11:30.224Z,101233.31
2022-10-12T18:13:35.194Z,101234.25
2022-10-12T18:15:44.178Z,101235.13
2022-10-12T18:17:48.613Z,101234.38
2022-10-12T18:19:52.649Z,101229.88
2022-10-12T18:21:56.732Z,101233.53
2022-10-12T18:24:03.890Z,101238.06
2022-10-12T18:26:10.007Z,101227.44
2022-10-12T18:28:16.235Z,101232.13
2022-10-12T18:30:24.852Z,101232.19
2022-10-12T18:32:28.606Z,101236.75
2022-10-12T18:34:36.495Z,101234.19
2022-10-12T18:36:43.001Z,101230.75
2022-10-12T18:38:46.678Z,101234.41
2022-10-12T18:40:50.381Z,101232.78
2022-10-12T18:42:54.116Z,101231.16
2022-10-12T18:44:59.198Z,101237.44
2022-10-12T18:47:03.058Z,101234.88
2022-10-12T18:49:09.587Z,101235.81
2022-10-12T18:51:19.693Z,101231.56
2022-10-12T18:53:27.570Z,101231.66
2022-10-12T18:55:31.669Z,101234.41
2022-10-12T18:57:39.807Z,101234.63
2022-10-12T18:59:44.782Z,101234.72
2022-10-12T19:01:50.832Z,101234.88
2022-10-12T19:03:57.155Z,101243.91
2022-10-12T19:06:10.217Z,101243.16
2022-10-12T19:08:13.963Z,101241.66
2022-10-12T19:10:19.042Z,101240.88
2022-10-12T19:12:23.571Z,101244.56
2022-10-12T19:14:28.108Z,101243.06
2022-10-12T19:16:32.823Z,101251.31
2022-10-12T19:18:41.618Z,101247.06
2022-10-12T19:20:45.942Z,101252.56
2022-10-12T19:22:50.584Z,101251.06
2022-10-12T19:24:55.017Z,101243.28
2022-10-12T19:27:00.899Z,101247.81
2022-10-12T19:29:06.481Z,101253.22
2022-10-12T19:31:12.979Z,101249.84
2022-10-12T19:33:17.989Z,101249.91
2022-10-12T19:35:24.909Z,101247.34
2022-10-12T19:37:28.911Z,101257.31
2022-10-12T19:39:33.654Z,101262.03
2022-10-12T19:41:38.347Z,101258.72
2022-10-12T19:43:43.568Z,101266.03
2022-10-12T19:45:47.939Z,101264.56
2022-10-12T19:47:52.279Z,101264.84
2022-10-12T19:49:56.651Z,101269.47
2022-10-12T19:52:04.011Z,101273.25
2022-10-12T19:54:08.281Z,101270.69
2022-10-12T19:56:22.418Z,101268.25
2022-10-12T19:58:29.683Z,101262.16
2022-10-12T20:00:38.437Z,101264.06
2022-10-12T20:02:45.633Z,101262.34
2022-10-12T20:04:56.011Z,101265.09
2022-10-12T20:07:02.840Z,101261.59
2022-10-12T20:09:08.934Z,101266.13
2022-10-12T20:11:18.454Z,101260.06
2022-10-12T20:13:26.521Z,101260.25
2022-10-12T20:15:33.909Z,101260.44
2022-10-12T20:17:39.292Z,101258.81
2022-10-12T20:19:43.778Z,101264.38
2022-10-12T20:21:47.778Z,101265.41
2022-10-12T20:23:54.379Z,101264.72
2022-10-12T20:25:59.152Z,101268.34
2022-10-12T20:28:04.283Z,101271.06
2022-10-12T20:30:10.412Z,101275.63
2022-10-12T20:32:15.871Z,101284.41
2022-10-12T20:34:20.861Z,101279.13
2022-10-12T20:36:26.919Z,101276.56
2022-10-12T20:38:31.604Z,101273.16
2022-10-12T20:40:37.071Z,101270.50
2022-10-12T20:42:44.668Z,101273.06
2022-10-12T20:44:53.241Z,101270.41
2022-10-12T20:46:57.529Z,101269.63
2022-10-12T20:49:03.732Z,101266.13
2022-10-12T20:51:09.099Z,101267.84
2022-10-12T20:53:14.228Z,101263.56
2022-10-12T20:55:18.328Z,101266.31
2022-10-12T20:57:31.186Z,101266.31
2022-10-12T20:59:42.390Z,101261.13
2022-10-12T21:01:47.784Z,101258.63
2022-10-12T21:03:53.839Z,101262.28
2022-10-12T21:05:58.396Z,101254.50
2022-10-12T21:08:03.132Z,101250.41
2022-10-12T21:10:08.907Z,101252.38
2022-10-12T21:12:13.352Z,101251.72
2022-10-12T21:14:19.656Z,101256.22
2022-10-12T21:16:23.767Z,101253.75
2022-10-12T21:18:31.767Z,101258.28
2022-10-12T21:20:41.076Z,101251.53
2022-10-12T21:22:54.544Z,101258.03
2022-10-12T21:25:00.189Z,101251.03
2022-10-12T21:27:09.001Z,101252.06
2022-10-12T21:29:13.886Z,101245.16
2022-10-12T21:31:21.842Z,101251.38
2022-10-12T21:33:28.614Z,101250.69
2022-10-12T21:35:32.654Z,101242.84
2022-10-12T21:37:37.041Z,101247.28
2022-10-12T21:39:40.755Z,101251.03
2022-10-12T21:41:45.039Z,101240.53
2022-10-12T21:43:50.486Z,101241.47
2022-10-12T21:45:54.813Z,101248.63
2022-10-12T21:48:00.801Z,101250.53
2022-10-12T21:50:08.500Z,101242.66
2022-10-12T21:52:12.575Z,101242.75
2022-10-12T21:54:16.869Z,101249.91
2022-10-12T21:56:23.248Z,101250.00
2022-10-12T21:58:27.236Z,101254.50
2022-10-12T22:00:31.364Z,101249.31
2022-10-12T22:02:35.147Z,101253.66
2022-10-12T22:04:40.616Z,101250.19
2022-10-12T22:06:45.065Z,101252.84
2022-10-12T22:08:52.387Z,101263.50
2022-10-12T22:10:57.514Z,101261.78
2022-10-12T22:13:01.732Z,101258.22
2022-10-12T22:15:06.370Z,101260.88
2022-10-12T22:17:10.435Z,101266.22
2022-10-12T22:19:19.224Z,101264.44
2022-10-12T22:21:24.445Z,101265.47
2022-10-12T22:23:28.530Z,101269.91
2022-10-12T22:25:33.690Z,101270.75
2022-10-12T22:27:37.549Z,101272.59
2022-10-12T22:29:41.576Z,101277.06
2022-10-12T22:31:46.642Z,101268.28
2022-10-12T22:33:52.477Z,101267.41
2022-10-12T22:35:56.886Z,101269.28
2022-10-12T22:38:02.049Z,101264.94
2022-10-12T22:40:06.659Z,101273.03
2022-10-12T22:42:10.527Z,101259.91
2022-10-12T22:44:14.194Z,101270.41
2022-10-12T22:46:18.222Z,101270.41
2022-10-12T22:48:22.665Z,101272.25
2022-10-12T22:50:26.402Z,101267.88
2022-10-12T22:52:30.041Z,101269.78
2022-10-12T22:54:36.665Z,101266.22
2022-10-12T22:56:41.195Z,101262.78
2022-10-12T22:58:45.266Z,101266.28
2022-10-12T23:00:49.725Z,101266.44
2022-10-12T23:02:53.512Z,101263.13
2022-10-12T23:04:57.464Z,101257.91
2022-10-12T23:07:01.352Z,101255.41
2022-10-12T23:09:06.318Z,101254.75
2022-10-12T23:11:13.759Z,101251.38
2022-10-12T23:13:17.374Z,101255.13
2022-10-12T23:15:21.255Z,101255.31
2022-10-12T23:17:25.466Z,101253.59
2022-10-12T23:19:29.916Z,101262.44
2022-10-12T23:21:36.122Z,101262.53
2022-10-12T23:23:41.355Z,101252.88
2022-10-12T23:25:47.621Z,101252.03
2022-10-12T23:27:55.318Z,101241.47
2022-10-12T23:29:59.019Z,101249.47
2022-10-12T23:32:03.011Z,101257.59
2022-10-12T23:34:08.265Z,101253.31
2022-10-12T23:36:14.652Z,101256.88
2022-10-12T23:38:18.791Z,101256.03
2022-10-12T23:40:22.649Z,101249.94
2022-10-12T23:42:26.909Z,101256.25
2022-10-12T23:44:32.555Z,101249.41
2022-10-12T23:46:36.424Z,101245.13
2022-10-12T23:48:40.635Z,101249.81
2022-10-12T23:50:44.578Z,101245.59
2022-10-12T23:52:48.219Z,101244.94
2022-10-12T23:54:52.027Z,101254.78
2022-10-12T23:56:55.933Z,101259.31
2022-10-12T23:59:00.887Z,101256.13
